SAS4581 ENTC-ENEV
Flight info
| Callsign | SAS4581 |
|---|---|
| Flight time | 0h 24m |
| Altitude | 14000 |
| Route | ROSKO DCT ELDUR |
| Aircraft | A20N/M-SDE2E3FGHIRWXY/LB1 |
Departure
| Time | 2026-05-04 17:07 |
|---|---|
| Airport | Tromsø Airport (ENTC) |
Arrival
| Time | 2026-05-04 17:31 |
|---|---|
| Airport | Harstad/Narvik Airport (ENEV) |
| Time | Latitude | Longitude | Altitude | Speed | Heading |
|---|---|---|---|---|---|
| 2026-05-04 16:47 | 69.67979 | 18.90928 | 37 ft | 0 kts | 283° |
| 2026-05-04 16:50 | 69.67979 | 18.90929 | 37 ft | 0 kts | 283° |
| 2026-05-04 16:55 | 69.67979 | 18.90930 | 37 ft | 0 kts | 283° |
| 2026-05-04 16:59 | 69.67971 | 18.91033 | 35 ft | 4 kts | 280° |
| 2026-05-04 17:00 | 69.67979 | 18.91268 | 38 ft | 2 kts | 193° |
| 2026-05-04 17:01 | 69.67980 | 18.91268 | 38 ft | 0 kts | 193° |
| 2026-05-04 17:01 | 69.67924 | 18.91231 | 38 ft | 18 kts | 193° |
| 2026-05-04 17:02 | 69.67755 | 18.91183 | 38 ft | 0 kts | 133° |
| 2026-05-04 17:04 | 69.67665 | 18.91438 | 41 ft | 21 kts | 187° |
| 2026-05-04 17:04 | 69.67335 | 18.91233 | 38 ft | 27 kts | 184° |
| 2026-05-04 17:05 | 69.67285 | 18.91191 | 37 ft | 1 kts | 11° |
| 2026-05-04 17:05 | 69.67289 | 18.91193 | 37 ft | 0 kts | 11° |
| 2026-05-04 17:06 | 69.67842 | 18.91562 | 44 ft | 108 kts | 13° |
| 2026-05-04 17:06 | 69.68734 | 18.92125 | 370 ft | 137 kts | 13° |
| 2026-05-04 17:07 | 69.70635 | 18.93350 | 1727 ft | 160 kts | 16° |
| 2026-05-04 17:07 | 69.71402 | 18.93878 | 1929 ft | 181 kts | 15° |
| 2026-05-04 17:07 | 69.73226 | 18.95155 | 2397 ft | 223 kts | 16° |
| 2026-05-04 17:07 | 69.74767 | 18.96204 | 3294 ft | 230 kts | 15° |
| 2026-05-04 17:08 | 69.76369 | 18.96736 | 4295 ft | 237 kts | 358° |
| 2026-05-04 17:08 | 69.79052 | 18.91510 | 6347 ft | 249 kts | 296° |
| 2026-05-04 17:08 | 69.79586 | 18.86725 | 7363 ft | 252 kts | 285° |
| 2026-05-04 17:09 | 69.79966 | 18.81738 | 8354 ft | 255 kts | 283° |
| 2026-05-04 17:09 | 69.80314 | 18.76666 | 9355 ft | 259 kts | 279° |
| 2026-05-04 17:09 | 69.80307 | 18.71452 | 10297 ft | 263 kts | 258° |
| 2026-05-04 17:10 | 69.78107 | 18.63103 | 11771 ft | 289 kts | 206° |
| 2026-05-04 17:10 | 69.71773 | 18.57206 | 13387 ft | 334 kts | 196° |
| 2026-05-04 17:11 | 69.69545 | 18.55260 | 13513 ft | 333 kts | 197° |
| 2026-05-04 17:11 | 69.67331 | 18.53294 | 13520 ft | 334 kts | 197° |
| 2026-05-04 17:11 | 69.62905 | 18.49323 | 13511 ft | 335 kts | 197° |
| 2026-05-04 17:12 | 69.60672 | 18.47314 | 13509 ft | 337 kts | 197° |
| 2026-05-04 17:12 | 69.56209 | 18.43303 | 13514 ft | 336 kts | 197° |
| 2026-05-04 17:13 | 69.49486 | 18.37289 | 13505 ft | 338 kts | 197° |
| 2026-05-04 17:14 | 69.42744 | 18.31292 | 13499 ft | 338 kts | 197° |
| 2026-05-04 17:14 | 69.40496 | 18.29301 | 13503 ft | 338 kts | 197° |
| 2026-05-04 17:14 | 69.36247 | 18.24029 | 13495 ft | 337 kts | 217° |
| 2026-05-04 17:15 | 69.34449 | 18.19746 | 13495 ft | 338 kts | 221° |
| 2026-05-04 17:15 | 69.30980 | 18.10717 | 13495 ft | 339 kts | 222° |
| 2026-05-04 17:16 | 69.27511 | 18.01732 | 13502 ft | 338 kts | 222° |
| 2026-05-04 17:16 | 69.22258 | 17.88285 | 13504 ft | 341 kts | 222° |
| 2026-05-04 17:17 | 69.20498 | 17.83805 | 13506 ft | 341 kts | 222° |
| 2026-05-04 17:17 | 69.15206 | 17.70399 | 13504 ft | 341 kts | 222° |
| 2026-05-04 17:18 | 69.13464 | 17.66008 | 13510 ft | 341 kts | 222° |
| 2026-05-04 17:18 | 69.09934 | 17.57138 | 13355 ft | 339 kts | 222° |
| 2026-05-04 17:19 | 69.06466 | 17.48466 | 12342 ft | 330 kts | 222° |
| 2026-05-04 17:19 | 69.03057 | 17.39977 | 11686 ft | 326 kts | 222° |
| 2026-05-04 17:20 | 68.99700 | 17.31653 | 10751 ft | 322 kts | 222° |
| 2026-05-04 17:20 | 68.96416 | 17.23316 | 10051 ft | 309 kts | 229° |
| 2026-05-04 17:20 | 68.95157 | 17.18682 | 9985 ft | 292 kts | 237° |
| 2026-05-04 17:21 | 68.93051 | 17.09542 | 9672 ft | 270 kts | 238° |
| 2026-05-04 17:21 | 68.91130 | 17.01120 | 9277 ft | 247 kts | 238° |
| 2026-05-04 17:22 | 68.90231 | 16.97200 | 9124 ft | 234 kts | 238° |
| 2026-05-04 17:22 | 68.89383 | 16.93514 | 8957 ft | 219 kts | 238° |
| 2026-05-04 17:23 | 68.87097 | 16.83621 | 7919 ft | 196 kts | 238° |
| 2026-05-04 17:23 | 68.86357 | 16.80435 | 7478 ft | 195 kts | 237° |
| 2026-05-04 17:23 | 68.84906 | 16.74192 | 6613 ft | 192 kts | 237° |
| 2026-05-04 17:24 | 68.84179 | 16.71072 | 6171 ft | 193 kts | 237° |
| 2026-05-04 17:24 | 68.81073 | 16.64472 | 5099 ft | 195 kts | 191° |
| 2026-05-04 17:25 | 68.79719 | 16.64199 | 4720 ft | 196 kts | 180° |
| 2026-05-04 17:25 | 68.77013 | 16.64481 | 4043 ft | 192 kts | 178° |
| 2026-05-04 17:26 | 68.74387 | 16.64867 | 3995 ft | 189 kts | 178° |
| 2026-05-04 17:26 | 68.70450 | 16.65381 | 3989 ft | 189 kts | 180° |
| 2026-05-04 17:27 | 68.67825 | 16.65659 | 3990 ft | 191 kts | 179° |
| 2026-05-04 17:27 | 68.65276 | 16.65950 | 3968 ft | 172 kts | 179° |
| 2026-05-04 17:28 | 68.62906 | 16.66227 | 3395 ft | 170 kts | 180° |
| 2026-05-04 17:29 | 68.59392 | 16.66633 | 2474 ft | 166 kts | 179° |
| 2026-05-04 17:29 | 68.55978 | 16.67022 | 1548 ft | 161 kts | 179° |
| 2026-05-04 17:30 | 68.52885 | 16.67359 | 694 ft | 138 kts | 180° |
| 2026-05-04 17:31 | 68.51004 | 16.67602 | 295 ft | 135 kts | 178° |
| 2026-05-04 17:31 | 68.48910 | 16.67852 | 97 ft | 20 kts | 163° |
| 2026-05-04 17:32 | 68.48890 | 16.68171 | 94 ft | 0 kts | 87° |
| 2026-05-04 17:33 | 68.48802 | 16.68218 | 91 ft | 20 kts | 178° |
| 2026-05-04 17:33 | 68.48738 | 16.68402 | 94 ft | 14 kts | 86° |
| 2026-05-04 17:34 | 68.48827 | 16.68704 | 96 ft | 4 kts | 317° |
| 2026-05-04 17:34 | 68.48835 | 16.68684 | 97 ft | 0 kts | 317° |
| 2026-05-04 17:38 | 68.48835 | 16.68685 | 95 ft | 0 kts | 317° |
| 2026-05-04 17:52 | 68.48835 | 16.68686 | 95 ft | 0 kts | 317° |
| 2026-05-04 17:55 | 68.48837 | 16.68679 | 95 ft | 2 kts | 317° |
| 2026-05-04 17:55 | 68.48855 | 16.68632 | 99 ft | 5 kts | 315° |
| 2026-05-04 17:55 | 68.48889 | 16.68517 | 99 ft | 11 kts | 285° |
| 2026-05-04 17:55 | 68.48893 | 16.68266 | 92 ft | 10 kts | 281° |
| 2026-05-04 17:56 | 68.48967 | 16.68202 | 93 ft | 14 kts | 358° |
| 2026-05-04 17:56 | 68.49083 | 16.68188 | 90 ft | 19 kts | 357° |
| 2026-05-04 17:56 | 68.49229 | 16.68173 | 90 ft | 22 kts | 357° |
| 2026-05-04 17:56 | 68.49384 | 16.68155 | 88 ft | 21 kts | 356° |
| 2026-05-04 17:57 | 68.49527 | 16.68139 | 82 ft | 20 kts | 358° |
| 2026-05-04 17:57 | 68.49647 | 16.68126 | 75 ft | 12 kts | 358° |
| 2026-05-04 17:57 | 68.49651 | 16.68125 | 68 ft | 0 kts | 358° |